Time;durP1;ratioP1;P1;durP2;ratioP2;P2;SDS_P1;SDS_P2;PMS_P1;PMS_P2;Temp;Humidity;BMP_temperature;BMP_pressure;BME280_temperature;BME280_humidity;BME280_pressure;Samples;Min_cycle;Max_cycle;Signal;HPM_P1;HPM_P2
2024/02/02 00:02:16;;;;;;;4.82;2.30;;;;;;;2.24;85.23;97632.69;5005910;28;20038;-44
2024/02/02 00:04:42;;;;;;;3.03;1.83;;;;;;;2.08;84.82;97596.50;5007201;28;20125;-42
2024/02/02 00:07:08;;;;;;;5.25;2.25;;;;;;;2.25;83.90;97624.09;4975128;28;20054;-43
2024/02/02 00:09:34;;;;;;;4.97;2.33;;;;;;;2.05;83.79;97588.06;5007316;28;20103;-42
2024/02/02 00:11:59;;;;;;;3.75;2.10;;;;;;;2.28;83.79;97623.16;5007114;28;20038;-41
2024/02/02 00:14:25;;;;;;;2.08;1.30;;;;;;;2.08;83.46;97598.22;5007387;28;20603;-41
2024/02/02 00:16:51;;;;;;;4.18;2.25;;;;;;;2.19;82.17;97616.63;5006129;28;20046;-43
2024/02/02 00:19:18;;;;;;;5.40;2.25;;;;;;;2.27;81.67;97617.19;5002117;28;20034;-41
2024/02/02 00:21:44;;;;;;;4.32;1.38;;;;;;;2.06;79.93;97580.31;4971592;28;20049;-42
2024/02/02 00:24:10;;;;;;;3.05;1.20;;;;;;;2.17;78.24;97618.41;4977931;28;20057;-42
2024/02/02 00:26:36;;;;;;;2.13;1.33;;;;;;;2.10;77.51;97614.34;4980074;28;20038;-42
2024/02/02 00:29:02;;;;;;;2.00;1.05;;;;;;;1.72;77.45;97558.47;4988897;28;20038;-42
2024/02/02 00:31:28;;;;;;;2.30;1.55;;;;;;;2.07;77.17;97620.44;4987209;28;20096;-41
2024/02/02 00:33:54;;;;;;;4.43;2.20;;;;;;;2.03;76.45;97621.44;4971329;28;20453;-42
2024/02/02 00:36:20;;;;;;;3.88;1.60;;;;;;;2.02;76.15;97613.78;4990618;28;20034;-41
2024/02/02 00:38:45;;;;;;;5.00;1.63;;;;;;;1.78;76.02;97564.19;4989100;28;20042;-42
2024/02/02 00:41:11;;;;;;;2.17;1.30;;;;;;;1.98;75.85;97610.50;4993763;28;20517;-42
2024/02/02 00:43:38;;;;;;;4.35;2.05;;;;;;;1.95;76.35;97604.63;4989864;28;20049;-42
2024/02/02 00:46:04;;;;;;;4.28;1.85;;;;;;;1.95;76.34;97607.19;4989238;28;20052;-42
2024/02/02 00:48:29;;;;;;;4.63;2.20;;;;;;;1.94;76.58;97621.72;5006518;28;20038;-43
2024/02/02 00:50:55;;;;;;;2.70;1.40;;;;;;;1.99;77.01;97608.78;4989949;28;20038;-43
2024/02/02 00:53:21;;;;;;;3.20;1.90;;;;;;;1.96;77.00;97591.78;4973474;28;20173;-41
2024/02/02 00:55:47;;;;;;;4.38;2.10;;;;;;;2.01;77.18;97596.75;5006529;28;20118;-42
2024/02/02 00:58:13;;;;;;;4.63;2.00;;;;;;;1.98;77.17;97596.84;4999584;28;20046;-42
2024/02/02 01:00:39;;;;;;;6.32;1.63;;;;;;;1.98;77.32;97590.00;4987412;28;20038;-44
2024/02/02 01:03:05;;;;;;;2.88;1.67;;;;;;;1.95;77.69;97587.53;4988194;28;20879;-42
2024/02/02 01:05:32;;;;;;;5.70;2.22;;;;;;;1.96;77.83;97590.94;4987749;28;20129;-41
2024/02/02 01:07:58;;;;;;;4.82;2.28;;;;;;;1.79;78.17;97562.47;4973081;28;20064;-43
2024/02/02 01:10:24;;;;;;;5.72;2.53;;;;;;;1.96;78.61;97586.66;4995024;28;20569;-42
2024/02/02 01:12:50;;;;;;;2.33;1.75;;;;;;;1.99;78.21;97581.41;5007461;28;20596;-43
2024/02/02 01:15:16;;;;;;;4.78;2.15;;;;;;;1.96;78.57;97573.84;4999432;28;20038;-42
2024/02/02 01:17:45;;;;;;;5.30;2.50;;;;;;;1.99;78.55;97578.03;5005889;28;20651;-42
2024/02/02 01:20:13;;;;;;;4.97;2.03;;;;;;;1.85;78.03;97557.16;4989207;28;20572;-42
2024/02/02 01:22:40;;;;;;;3.72;2.13;;;;;;;1.92;78.18;97582.53;4989821;28;20096;-42
2024/02/02 01:25:12;;;;;;;3.60;1.92;;;;;;;1.48;78.14;97499.47;5006142;28;20132;-41
2024/02/02 01:27:38;;;;;;;2.60;1.30;;;;;;;2.02;78.55;97576.19;5004979;28;20056;-42
2024/02/02 01:30:06;;;;;;;4.85;2.30;;;;;;;1.65;78.19;97527.94;4990609;28;20053;-42
2024/02/02 01:32:33;;;;;;;4.55;2.40;;;;;;;1.92;78.49;97574.84;4995657;28;20049;-42
2024/02/02 01:35:00;;;;;;;3.08;1.70;;;;;;;1.90;78.61;97575.75;4990141;28;20100;-42
2024/02/02 01:37:26;;;;;;;2.30;1.20;;;;;;;1.92;78.68;97567.16;5005676;28;20037;-42
2024/02/02 01:39:52;;;;;;;4.25;1.90;;;;;;;1.84;78.38;97558.88;5005947;28;20033;-42
2024/02/02 01:42:18;;;;;;;3.65;1.98;;;;;;;1.80;78.32;97564.16;4989086;28;20042;-41
2024/02/02 01:44:44;;;;;;;4.68;2.08;;;;;;;1.81;78.52;97561.53;5006506;28;20168;-41
2024/02/02 01:47:10;;;;;;;4.13;2.08;;;;;;;1.82;78.22;97558.09;5004282;28;20120;-42
2024/02/02 01:49:36;;;;;;;3.08;1.50;;;;;;;1.80;78.16;97561.59;4994639;28;20097;-44
2024/02/02 01:52:03;;;;;;;2.45;1.80;;;;;;;1.77;78.42;97559.16;4998416;28;20075;-43
2024/02/02 01:54:30;;;;;;;4.38;1.98;;;;;;;1.73;78.19;97560.94;5006777;28;20050;-43
2024/02/02 01:56:56;;;;;;;3.90;2.00;;;;;;;1.72;78.24;97553.34;4972596;28;20133;-42
2024/02/02 01:59:22;;;;;;;5.18;1.90;;;;;;;1.76;77.84;97549.78;4973030;28;20068;-42
2024/02/02 02:01:48;;;;;;;4.32;1.83;;;;;;;1.73;78.09;97545.59;5004698;28;20091;-41
2024/02/02 02:04:13;;;;;;;1.63;1.02;;;;;;;1.42;77.72;97497.13;5005340;28;20041;-41
2024/02/02 02:06:40;;;;;;;3.67;1.95;;;;;;;1.73;77.84;97540.47;5000317;28;20072;-43
2024/02/02 02:09:09;;;;;;;3.28;2.00;;;;;;;1.85;78.03;97541.78;4953576;28;20050;-43
2024/02/02 02:11:35;;;;;;;3.53;1.77;;;;;;;1.81;77.68;97538.50;5005075;28;20048;-43
2024/02/02 02:14:01;;;;;;;5.32;1.80;;;;;;;1.85;77.85;97527.25;5007216;28;20132;-42
2024/02/02 02:16:27;;;;;;;4.13;1.80;;;;;;;1.71;77.50;97511.53;4989285;28;20030;-43
2024/02/02 02:18:53;;;;;;;4.07;2.08;;;;;;;1.87;77.46;97534.88;5005304;28;20137;-41
2024/02/02 02:21:23;;;;;;;3.92;1.33;;;;;;;1.89;77.68;97545.91;5005357;28;20140;-42
2024/02/02 02:23:49;;;;;;;8.27;2.50;;;;;;;1.87;77.52;97529.75;4994455;28;20057;-42
2024/02/02 02:26:17;;;;;;;2.17;1.27;;;;;;;1.85;77.30;97534.09;4985594;28;20042;-42
2024/02/02 02:28:44;;;;;;;4.32;2.00;;;;;;;1.76;77.80;97530.13;4985472;28;20057;-42
2024/02/02 02:31:16;;;;;;;2.70;1.50;;;;;;;1.74;78.00;97529.34;5004705;28;20096;-42
2024/02/02 02:33:43;;;;;;;4.78;2.20;;;;;;;1.49;78.08;97496.03;5004129;28;20042;-42
2024/02/02 02:36:12;;;;;;;3.58;2.10;;;;;;;1.55;78.24;97500.13;4999070;28;20026;-42
2024/02/02 02:38:38;;;;;;;3.85;1.92;;;;;;;1.79;78.53;97542.81;4987025;28;20101;-41
2024/02/02 02:41:05;;;;;;;6.47;2.10;;;;;;;1.79;78.64;97553.06;4998724;28;20041;-42
2024/02/02 02:43:31;;;;;;;2.45;1.63;;;;;;;1.85;78.82;97541.78;4940239;28;20520;-43
2024/02/02 02:45:57;;;;;;;4.32;1.80;;;;;;;1.84;78.92;97543.50;4987142;28;20053;-42
2024/02/02 02:48:23;;;;;;;3.58;1.92;;;;;;;1.86;78.71;97539.16;5001539;28;20048;-42
2024/02/02 02:50:50;;;;;;;4.97;1.90;;;;;;;1.88;78.81;97539.97;4980167;28;20046;-41
2024/02/02 02:53:16;;;;;;;2.45;1.10;;;;;;;1.67;78.66;97515.06;4992522;28;20481;-42
2024/02/02 02:55:42;;;;;;;4.03;1.90;;;;;;;1.80;78.64;97530.84;4988745;28;20035;-42
2024/02/02 02:58:08;;;;;;;2.90;1.98;;;;;;;1.86;78.81;97530.66;4990273;28;20112;-42
2024/02/02 03:00:34;;;;;;;4.32;2.08;;;;;;;1.78;78.93;97535.22;4990329;28;20569;-42
2024/02/02 03:03:01;;;;;;;6.38;2.38;;;;;;;1.65;79.07;97511.72;4999770;28;20046;-42
2024/02/02 03:05:28;;;;;;;7.60;2.53;;;;;;;1.83;79.12;97535.88;5000717;28;20034;-42
2024/02/02 03:07:54;;;;;;;3.63;2.10;;;;;;;1.90;78.46;97543.28;4971866;28;20430;-42
2024/02/02 03:10:25;;;;;;;4.85;2.30;;;;;;;1.85;78.82;97521.28;4994274;28;20533;-41
2024/02/02 03:12:52;;;;;;;2.55;1.75;;;;;;;1.73;78.55;97517.41;4988706;28;20038;-42
2024/02/02 03:15:18;;;;;;;2.78;1.55;;;;;;;1.69;79.28;97524.38;4988041;28;20838;-41
2024/02/02 03:17:45;;;;;;;5.68;2.50;;;;;;;1.69;79.26;97520.97;5000946;28;20042;-42
2024/02/02 03:20:12;;;;;;;3.83;2.35;;;;;;;1.73;79.73;97527.66;4999131;28;20053;-43
2024/02/02 03:22:40;;;;;;;5.50;2.40;;;;;;;1.73;79.43;97519.16;5008221;28;20049;-43
2024/02/02 03:25:07;;;;;;;3.35;2.25;;;;;;;1.49;79.12;97493.47;5007914;28;20045;-42
2024/02/02 03:27:34;;;;;;;2.42;1.42;;;;;;;1.40;80.14;97485.28;4989092;28;20042;-43
2024/02/02 03:30:01;;;;;;;2.58;1.88;;;;;;;1.61;80.42;97526.38;5009028;28;20046;-43
2024/02/02 03:32:30;;;;;;;;;;;;;;;1.65;80.41;97521.97;4990770;28;20100;-45
2024/02/02 03:35:00;;;;;;;3.50;1.90;;;;;;;1.64;80.26;97525.41;4960815;28;19922;-45
2024/02/02 03:37:26;;;;;;;6.70;2.45;;;;;;;1.70;80.58;97526.03;5000554;28;20041;-43
2024/02/02 03:39:52;;;;;;;3.60;1.73;;;;;;;1.66;80.60;97519.38;4952258;28;20729;-42
2024/02/02 03:42:18;;;;;;;5.65;2.08;;;;;;;1.75;80.75;97527.59;4970108;28;20509;-42
2024/02/02 03:44:44;;;;;;;4.72;2.17;;;;;;;1.66;80.48;97511.69;5003394;28;20132;-43
2024/02/02 03:47:10;;;;;;;4.75;2.08;;;;;;;1.79;80.56;97531.72;4986779;28;20038;-41
2024/02/02 03:49:37;;;;;;;5.60;1.98;;;;;;;1.69;80.31;97523.53;4982562;28;20046;-43
2024/02/02 03:52:07;;;;;;;6.43;2.05;;;;;;;1.84;80.87;97538.38;4979730;28;20033;-42
2024/02/02 03:54:34;;;;;;;5.90;3.10;;;;;;;1.77;80.07;97521.56;4991473;28;20084;-42
2024/02/02 03:57:03;;;;;;;4.47;1.73;;;;;;;1.82;79.95;97527.38;4991517;28;20403;-42
2024/02/02 03:59:29;;;;;;;4.90;2.20;;;;;;;1.78;80.35;97528.34;5006660;28;20526;-42
2024/02/02 04:01:55;;;;;;;8.60;2.38;;;;;;;1.87;80.14;97527.22;5008588;28;20144;-45
2024/02/02 04:04:21;;;;;;;6.65;2.20;;;;;;;1.91;79.91;97529.59;5007804;28;20080;-42
2024/02/02 04:06:47;;;;;;;2.95;2.08;;;;;;;1.83;80.01;97518.81;4971535;28;20046;-41
2024/02/02 04:09:13;;;;;;;3.53;2.30;;;;;;;1.81;79.98;97522.28;4984079;28;20049;-42
2024/02/02 04:11:39;;;;;;;3.60;1.88;;;;;;;1.78;80.39;97520.66;5006738;28;20037;-51
2024/02/02 04:14:05;;;;;;;7.10;2.03;;;;;;;1.74;80.09;97516.53;5002903;28;20042;-42
2024/02/02 04:16:32;;;;;;;1.65;1.20;;;;;;;1.76;80.42;97526.72;5008579;28;20057;-43
2024/02/02 04:18:58;;;;;;;4.82;2.53;;;;;;;1.72;80.51;97528.56;5002819;28;20819;-43
2024/02/02 04:21:24;;;;;;;4.60;2.45;;;;;;;1.80;80.55;97530.84;5009258;28;20061;-42
2024/02/02 04:23:49;;;;;;;3.08;2.10;;;;;;;1.81;80.30;97524.84;4984673;28;20613;-42
2024/02/02 04:26:15;;;;;;;8.27;2.58;;;;;;;1.75;80.39;97518.19;4987955;28;20514;-42
2024/02/02 04:28:41;;;;;;;3.53;1.75;;;;;;;1.77;80.37;97524.13;4964610;28;20374;-42
2024/02/02 04:31:07;;;;;;;6.53;2.75;;;;;;;1.61;80.31;97490.50;4999531;28;20057;-43
2024/02/02 04:33:33;;;;;;;5.38;1.98;;;;;;;1.91;80.55;97524.47;4995478;28;20065;-42
2024/02/02 04:35:59;;;;;;;4.30;1.90;;;;;;;1.91;80.57;97527.03;4964795;28;20045;-43
2024/02/02 04:38:25;;;;;;;4.45;2.25;;;;;;;1.89;80.37;97526.25;4995201;28;20038;-42
2024/02/02 04:40:51;;;;;;;7.65;2.58;;;;;;;1.94;80.57;97536.34;5000079;28;20050;-42
2024/02/02 04:43:17;;;;;;;4.38;2.08;;;;;;;1.94;80.01;97531.22;4980508;28;20127;-41
2024/02/02 04:45:43;;;;;;;5.97;2.60;;;;;;;1.93;80.31;97529.56;4963375;28;20073;-42
2024/02/02 04:48:09;;;;;;;4.60;2.47;;;;;;;1.59;80.08;97463.28;4994132;28;20042;-43
2024/02/02 04:50:35;;;;;;;5.63;3.00;;;;;;;1.97;79.93;97523.44;5001553;28;20046;-41
2024/02/02 04:53:01;;;;;;;4.40;1.98;;;;;;;1.88;80.13;97485.34;4989531;28;20042;-42
2024/02/02 04:55:27;;;;;;;6.18;2.28;;;;;;;2.01;79.98;97520.72;4988548;28;20486;-41
2024/02/02 04:57:53;;;;;;;5.13;2.47;;;;;;;1.91;80.07;97514.22;4970266;28;20038;-44
2024/02/02 05:00:19;;;;;;;6.93;2.58;;;;;;;1.99;80.32;97524.22;4991397;28;20512;-41
2024/02/02 05:02:46;;;;;;;8.15;2.80;;;;;;;1.98;80.21;97531.06;4999784;28;20514;-43
2024/02/02 05:05:11;;;;;;;5.57;2.40;;;;;;;1.97;80.36;97534.53;5004346;28;20046;-41
2024/02/02 05:07:37;;;;;;;4.10;2.22;;;;;;;1.95;80.55;97536.28;4984935;28;20042;-41
2024/02/02 05:10:06;;;;;;;9.25;3.03;;;;;;;1.99;81.08;97537.03;4971513;28;20041;-42
2024/02/02 05:12:33;;;;;;;5.20;2.17;;;;;;;1.90;80.67;97504.03;4963891;28;20066;-42
2024/02/02 05:14:59;;;;;;;7.45;2.47;;;;;;;2.06;80.80;97538.47;4987241;28;20042;-44
2024/02/02 05:17:26;;;;;;;4.68;2.28;;;;;;;1.99;81.00;97545.53;4987221;28;20046;-43
2024/02/02 05:19:53;;;;;;;4.05;2.33;;;;;;;1.95;81.19;97538.84;4980628;28;20037;-43
2024/02/02 05:22:19;;;;;;;3.42;1.75;;;;;;;1.94;80.68;97538.91;5006551;28;20072;-44
2024/02/02 05:24:45;;;;;;;4.05;2.13;;;;;;;1.89;80.59;97535.66;5002378;28;20077;-43
2024/02/02 05:27:12;;;;;;;6.95;2.70;;;;;;;1.86;80.75;97533.22;4974805;28;20054;-45
2024/02/02 05:29:38;;;;;;;8.82;1.60;;;;;;;1.73;81.18;97512.28;4964354;28;20045;-44
2024/02/02 05:32:05;;;;;;;8.90;2.30;;;;;;;1.63;80.94;97498.97;4978732;28;20037;-44
2024/02/02 05:34:31;;;;;;;4.13;1.70;;;;;;;1.83;81.23;97516.22;4990839;28;20069;-42
2024/02/02 05:36:57;;;;;;;5.28;2.28;;;;;;;1.96;80.98;97524.31;4994390;28;20038;-44
2024/02/02 05:39:23;;;;;;;4.18;2.05;;;;;;;1.79;80.80;97494.16;4978441;28;20042;-45
2024/02/02 05:41:51;;;;;;;4.88;2.13;;;;;;;1.57;81.18;97454.81;4993013;28;20639;-43
2024/02/02 05:44:17;;;;;;;7.65;2.50;;;;;;;1.74;81.60;97488.34;4992809;28;20134;-45
2024/02/02 05:46:44;;;;;;;3.13;1.75;;;;;;;2.00;82.32;97531.84;4994068;28;20129;-46
2024/02/02 05:49:10;;;;;;;8.65;2.70;;;;;;;1.91;83.45;97526.19;4999263;28;20049;-43
2024/02/02 05:51:36;;;;;;;7.72;2.53;;;;;;;1.95;84.19;97533.72;5010757;28;20046;-43
2024/02/02 05:54:02;;;;;;;7.00;2.50;;;;;;;1.92;84.98;97521.03;4980291;28;20038;-44
2024/02/02 05:56:28;;;;;;;3.40;2.17;;;;;;;1.98;85.01;97543.88;4994280;28;20733;-43
2024/02/02 05:58:54;;;;;;;7.18;3.30;;;;;;;1.98;85.93;97538.75;4994516;28;20085;-43
2024/02/02 06:01:19;;;;;;;8.18;2.40;;;;;;;2.04;86.37;97541.09;4993177;28;20132;-42
2024/02/02 06:03:45;;;;;;;7.55;2.70;;;;;;;2.12;86.76;97543.41;4981453;28;20041;-43
2024/02/02 06:06:11;;;;;;;8.43;3.55;;;;;;;2.11;86.82;97534.88;4993739;28;20464;-43
2024/02/02 06:08:37;;;;;;;6.45;2.85;;;;;;;2.20;86.93;97538.03;5000304;28;20037;-42
2024/02/02 06:11:04;;;;;;;9.05;2.97;;;;;;;2.04;87.09;97512.91;4988926;28;20048;-44
2024/02/02 06:13:30;;;;;;;4.72;2.75;;;;;;;2.22;86.66;97543.91;5005578;28;20411;-44
2024/02/02 06:15:56;;;;;;;6.25;2.55;;;;;;;1.79;86.33;97486.47;4969202;28;20053;-43
2024/02/02 06:18:22;;;;;;;4.00;2.15;;;;;;;2.22;86.40;97544.75;4961979;28;20046;-43
2024/02/02 06:20:48;;;;;;;3.22;1.55;;;;;;;2.20;86.15;97553.41;4999417;28;20119;-43
2024/02/02 06:23:15;;;;;;;4.50;2.38;;;;;;;2.10;85.80;97542.59;4998993;28;20049;-43
2024/02/02 06:25:41;;;;;;;6.32;3.28;;;;;;;2.12;85.59;97541.69;4987514;28;20050;-42
2024/02/02 06:28:08;;;;;;;5.47;2.60;;;;;;;2.16;85.56;97555.19;4969141;28;20072;-42
2024/02/02 06:30:34;;;;;;;7.18;2.90;;;;;;;2.18;85.05;97550.03;4985080;28;20418;-45
2024/02/02 06:33:00;;;;;;;11.57;2.70;;;;;;;1.95;85.19;97494.47;4985931;28;20042;-42
2024/02/02 06:35:27;;;;;;;6.70;2.17;;;;;;;2.26;84.74;97551.44;4961562;28;20042;-44
2024/02/02 06:37:53;;;;;;;6.35;2.28;;;;;;;2.32;84.71;97563.19;4994552;28;20038;-43
2024/02/02 06:40:21;;;;;;;3.20;1.33;;;;;;;2.45;84.84;97561.88;4997643;28;20050;-42
2024/02/02 06:42:47;;;;;;;6.35;2.47;;;;;;;2.39;84.15;97562.09;4993302;28;20045;-43
2024/02/02 06:45:14;;;;;;;5.25;2.72;;;;;;;2.47;83.64;97557.50;4999421;28;20437;-43
2024/02/02 06:47:41;;;;;;;6.43;2.70;;;;;;;2.41;83.69;97555.16;4975768;28;20115;-43
2024/02/02 06:50:08;;;;;;;5.82;2.40;;;;;;;2.36;83.80;97551.94;4998527;28;20600;-44
2024/02/02 06:52:34;;;;;;;4.95;2.42;;;;;;;2.46;83.83;97556.69;4992812;28;21438;-42
2024/02/02 06:55:00;;;;;;;14.45;2.80;;;;;;;2.57;83.84;97561.41;4977374;28;20141;-43
2024/02/02 06:57:29;;;;;;;5.40;2.70;;;;;;;2.28;83.70;97498.38;4940270;28;20173;-42
2024/02/02 06:59:57;;;;;;;5.88;2.60;;;;;;;2.64;83.66;97537.22;4972608;28;20100;-42
2024/02/02 07:02:31;;;;;;;4.95;1.85;;;;;;;2.85;82.82;97566.38;4990934;28;20046;-43
2024/02/02 07:04:57;;;;;;;7.60;2.63;;;;;;;2.72;82.67;97565.19;4993922;28;20651;-44
2024/02/02 07:07:23;;;;;;;2.42;1.55;;;;;;;2.84;82.72;97572.41;4997323;28;20056;-43
2024/02/02 07:09:54;;;;;;;3.30;1.52;;;;;;;2.76;81.69;97565.00;4994879;28;20034;-44
2024/02/02 07:12:56;;;;;;;5.90;2.13;;;;;;;2.91;80.80;97571.28;4998941;28;20353;-43
2024/02/02 07:15:24;;;;;;;5.90;1.65;;;;;;;3.14;80.17;97570.41;5001914;28;20556;-42
2024/02/02 07:17:50;;;;;;;7.05;2.70;;;;;;;3.12;79.55;97574.75;4982968;28;20054;-45
2024/02/02 07:20:22;;;;;;;10.75;2.08;;;;;;;3.16;79.53;97581.44;4995200;28;20536;-45
2024/02/02 07:22:50;;;;;;;4.03;2.15;;;;;;;3.27;79.50;97569.03;4989504;28;20426;-43
2024/02/02 07:25:21;;;;;;;5.53;1.98;;;;;;;3.24;78.60;97580.28;5001717;28;20049;-44
2024/02/02 07:27:54;;;;;;;5.63;1.88;;;;;;;3.27;79.02;97579.31;4980651;28;20084;-43
2024/02/02 07:30:41;;;;;;;3.65;1.90;;;;;;;3.24;79.05;97584.56;4986179;28;20136;-44
2024/02/02 07:33:25;;;;;;;3.58;1.98;;;;;;;3.13;79.67;97590.13;5004694;28;20430;-43
2024/02/02 07:35:57;;;;;;;3.08;1.38;;;;;;;2.92;79.10;97590.94;4971757;28;20096;-45
2024/02/02 07:38:46;;;;;;;7.93;2.03;;;;;;;3.08;79.90;97586.88;4980444;28;20502;-42
2024/02/02 07:41:17;;;;;;;2.78;1.60;;;;;;;3.31;79.60;97601.38;4993470;28;20044;-43
2024/02/02 07:43:44;;;;;;;2.30;1.50;;;;;;;3.23;79.48;97598.28;4998341;28;20041;-44
2024/02/02 07:46:11;;;;;;;2.97;1.35;;;;;;;2.96;80.00;97605.31;4995844;28;20707;-46
2024/02/02 07:48:37;;;;;;;3.88;1.50;;;;;;;2.78;80.86;97601.69;4979547;28;20931;-44
2024/02/02 07:51:05;;;;;;;5.80;1.73;;;;;;;2.70;81.35;97608.81;4999548;28;20050;-44
2024/02/02 07:53:31;;;;;;;5.35;1.20;;;;;;;2.68;81.52;97608.03;4973239;28;20044;-43
2024/02/02 07:55:57;;;;;;;4.90;1.60;;;;;;;2.62;82.25;97604.88;4979330;28;20053;-43
2024/02/02 07:58:23;;;;;;;4.07;1.45;;;;;;;2.74;82.60;97612.09;4996505;28;20552;-44
2024/02/02 08:00:49;;;;;;;3.08;1.20;;;;;;;2.79;82.37;97613.63;5000795;28;20621;-43
2024/02/02 08:03:15;;;;;;;2.70;1.00;;;;;;;2.69;81.19;97614.84;4976998;28;20124;-45
2024/02/02 08:05:41;;;;;;;4.32;1.15;;;;;;;2.58;80.64;97624.66;4999157;28;20046;-43
2024/02/02 08:08:07;;;;;;;2.28;0.95;;;;;;;2.67;79.72;97619.19;4994833;28;20042;-43
2024/02/02 08:10:33;;;;;;;5.18;1.10;;;;;;;2.69;78.58;97619.13;4996679;28;20042;-44
2024/02/02 08:12:59;;;;;;;1.63;1.05;;;;;;;2.83;77.84;97624.59;4965855;28;20049;-44
2024/02/02 08:15:26;;;;;;;2.25;0.80;;;;;;;2.80;77.41;97599.06;4998399;28;20217;-43
2024/02/02 08:17:52;;;;;;;2.22;0.90;;;;;;;2.88;76.71;97623.53;5005016;28;20477;-42
2024/02/02 08:20:18;;;;;;;3.90;1.10;;;;;;;2.62;75.22;97610.81;5000355;28;20042;-45
2024/02/02 08:22:46;;;;;;;1.65;0.80;;;;;;;2.71;75.01;97627.63;5007922;28;20053;-42
2024/02/02 08:25:15;;;;;;;1.95;0.80;;;;;;;2.74;74.32;97630.91;4983354;28;20048;-44
2024/02/02 08:27:41;;;;;;;1.85;1.00;;;;;;;2.83;73.09;97633.13;4963293;28;20042;-43
2024/02/02 08:30:07;;;;;;;4.63;0.90;;;;;;;2.86;72.56;97604.81;4989220;28;20111;-42
2024/02/02 08:32:39;;;;;;;3.70;0.85;;;;;;;3.18;71.76;97639.56;4978988;28;20046;-43
2024/02/02 08:35:07;;;;;;;6.55;0.80;;;;;;;3.01;72.01;97616.22;4981952;28;20049;-43
2024/02/02 08:37:33;;;;;;;1.67;0.70;;;;;;;3.26;71.51;97659.78;4973512;28;20045;-41
2024/02/02 08:40:00;;;;;;;1.67;0.98;;;;;;;3.12;71.31;97657.75;5000479;28;20644;-43
2024/02/02 08:42:26;;;;;;;5.60;1.00;;;;;;;3.34;71.50;97642.38;4981315;28;20492;-43
2024/02/02 08:44:52;;;;;;;2.85;0.68;;;;;;;3.57;71.19;97667.16;4978524;28;20145;-42
2024/02/02 08:47:18;;;;;;;1.90;0.77;;;;;;;3.55;69.43;97654.41;4963137;28;20143;-43
2024/02/02 08:49:55;;;;;;;3.28;0.85;;;;;;;3.60;69.28;97669.63;5000304;28;20100;-43
2024/02/02 08:52:31;;;;;;;4.43;0.60;;;;;;;4.06;69.07;97674.63;4978138;28;20085;-46
2024/02/02 08:54:57;;;;;;;3.55;1.08;;;;;;;4.45;67.25;97669.53;5004414;28;20033;-43
2024/02/02 08:57:25;;;;;;;3.72;0.63;;;;;;;4.72;66.00;97677.00;4978582;28;20057;-43
2024/02/02 08:59:54;;;;;;;3.38;0.43;;;;;;;4.54;65.82;97668.34;4992475;28;20050;-45
2024/02/02 09:02:35;;;;;;;1.75;0.77;;;;;;;4.07;65.63;97647.19;4998977;28;20553;-43
2024/02/02 09:05:01;;;;;;;3.58;1.00;;;;;;;4.04;65.63;97671.25;5001634;28;20096;-42
2024/02/02 09:07:27;;;;;;;3.78;1.05;;;;;;;3.90;65.38;97683.00;4994527;28;20525;-44
2024/02/02 09:09:53;;;;;;;5.55;0.77;;;;;;;3.61;65.40;97651.56;4997925;28;20037;-44
2024/02/02 09:12:19;;;;;;;3.55;1.08;;;;;;;3.52;65.31;97687.88;4988121;28;20052;-45
2024/02/02 09:14:45;;;;;;;4.93;0.80;;;;;;;3.39;65.64;97679.00;4972849;28;20046;-42
2024/02/02 09:17:12;;;;;;;1.98;1.23;;;;;;;3.17;65.69;97666.13;4988417;28;20045;-43
2024/02/02 09:19:43;;;;;;;1.13;0.52;;;;;;;3.40;65.54;97683.25;5003461;28;20092;-42
2024/02/02 09:22:16;;;;;;;1.33;0.63;;;;;;;3.32;64.52;97691.22;4986017;28;20100;-47
2024/02/02 09:24:44;;;;;;;1.42;0.70;;;;;;;3.54;64.76;97696.38;4987658;28;20073;-42
2024/02/02 09:27:16;;;;;;;3.03;0.67;;;;;;;3.73;63.92;97692.19;4972114;28;20042;-42
2024/02/02 09:29:49;;;;;;;2.75;0.85;;;;;;;3.64;62.96;97700.28;4988856;28;20834;-41
2024/02/02 09:32:16;;;;;;;5.07;0.68;;;;;;;3.46;63.23;97677.00;4994671;28;20189;-42
2024/02/02 09:34:43;;;;;;;3.33;0.65;;;;;;;4.03;62.82;97702.19;4991522;28;20113;-42
2024/02/02 09:37:10;;;;;;;4.18;0.60;;;;;;;5.24;61.97;97694.41;4990397;28;20030;-43
2024/02/02 09:39:35;;;;;;;4.97;0.70;;;;;;;5.58;59.99;97701.47;4978866;28;20425;-42
2024/02/02 09:42:30;;;;;;;2.10;0.70;;;;;;;6.96;59.99;97699.84;4999811;28;20072;-42
2024/02/02 09:45:03;;;;;;;6.13;0.90;;;;;;;7.74;58.61;97687.94;4984591;28;20517;-42
2024/02/02 09:47:51;;;;;;;2.67;0.80;;;;;;;8.08;55.22;97691.16;4991886;28;20129;-45
2024/02/02 09:50:21;;;;;;;1.63;0.38;;;;;;;7.45;50.38;97703.28;4999870;28;20038;-42
2024/02/02 09:52:55;;;;;;;1.63;0.40;;;;;;;6.57;50.39;97697.53;4994369;28;20127;-47
2024/02/02 09:55:32;;;;;;;5.35;0.50;;;;;;;6.59;50.05;97690.56;5006758;28;20600;-43
2024/02/02 09:58:30;;;;;;;2.03;0.30;;;;;;;6.34;47.91;97705.56;4989059;28;20034;-41
2024/02/02 10:01:32;;;;;;;1.95;0.32;;;;;;;5.93;46.51;97672.31;4977756;28;20038;-43
2024/02/02 10:04:23;;;;;;;1.60;0.50;;;;;;;6.13;46.60;97710.03;4969859;28;20050;-43
2024/02/02 10:07:09;;;;;;;1.80;0.43;;;;;;;5.88;45.53;97697.47;5006258;28;20096;-42
2024/02/02 10:09:37;;;;;;;2.35;0.38;;;;;;;5.89;46.38;97700.88;4988054;28;20076;-43
2024/02/02 10:12:09;;;;;;;2.88;0.57;;;;;;;5.87;46.55;97698.38;4991280;28;20437;-42
2024/02/02 10:14:47;;;;;;;3.78;0.52;;;;;;;6.03;46.50;97698.47;5005185;28;20192;-42
2024/02/02 10:17:38;;;;;;;4.63;0.70;;;;;;;5.98;46.58;97713.34;4992852;28;20418;-43
2024/02/02 10:20:16;;;;;;;2.35;0.70;;;;;;;5.82;47.39;97718.34;4999488;28;20108;-43
2024/02/02 10:22:57;;;;;;;2.83;0.32;;;;;;;5.30;47.57;97716.47;4976542;28;20046;-44
2024/02/02 10:25:23;;;;;;;5.50;0.75;;;;;;;5.03;47.59;97713.38;4987490;28;20050;-41
2024/02/02 10:28:11;;;;;;;1.45;0.40;;;;;;;4.94;48.72;97724.09;4972041;28;20042;-46
2024/02/02 10:30:43;;;;;;;1.77;0.60;;;;;;;4.78;48.57;97723.91;4991414;28;20407;-42
2024/02/02 10:33:34;;;;;;;1.98;0.60;;;;;;;4.30;48.80;97713.91;5008510;28;20038;-42
2024/02/02 10:36:09;;;;;;;1.80;0.60;;;;;;;4.29;49.09;97714.00;5000139;28;20058;-41
2024/02/02 10:38:40;;;;;;;5.10;0.88;;;;;;;4.36;48.80;97716.25;4990269;28;20097;-42
2024/02/02 10:41:48;;;;;;;2.60;0.50;;;;;;;4.95;48.69;97712.91;4992122;28;20045;-47
2024/02/02 10:44:32;;;;;;;1.43;0.50;;;;;;;4.93;46.63;97725.81;4957724;28;20038;-42
2024/02/02 10:47:18;;;;;;;1.55;0.30;;;;;;;4.91;46.79;97730.22;4972747;28;20379;-42
2024/02/02 10:49:59;;;;;;;1.30;0.38;;;;;;;4.69;45.99;97745.72;4995553;28;20053;-41
2024/02/02 10:53:16;;;;;;;1.83;0.65;;;;;;;4.57;45.74;97737.66;5007603;28;20069;-44
2024/02/02 10:55:54;;;;;;;0.77;0.30;;;;;;;4.36;45.07;97741.97;4897944;29;20134;-42
2024/02/02 10:58:39;;;;;;;3.10;0.73;;;;;;;6.08;44.41;97744.69;4981619;28;20078;-43
2024/02/02 11:01:30;;;;;;;1.60;0.63;;;;;;;8.31;41.59;97741.69;4993235;28;20157;-41
2024/02/02 11:04:09;;;;;;;1.92;0.45;;;;;;;8.54;41.33;97736.94;4991709;28;20046;-44
2024/02/02 11:06:56;;;;;;;2.33;0.50;;;;;;;9.88;36.83;97751.28;4971618;28;20053;-43
2024/02/02 11:09:34;;;;;;;1.15;0.50;;;;;;;11.03;34.38;97728.19;4989340;28;20519;-42
2024/02/02 11:12:18;;;;;;;1.85;0.50;;;;;;;12.30;32.51;97754.00;4974890;28;20525;-44
2024/02/02 11:14:59;;;;;;;1.35;0.65;;;;;;;12.79;31.42;97714.75;5009080;28;20506;-44
2024/02/02 11:17:33;;;;;;;1.50;0.40;;;;;;;13.63;30.14;97756.19;4991479;28;20524;-42
2024/02/02 11:20:18;;;;;;;1.17;0.35;;;;;;;11.44;31.39;97750.56;5008365;28;20084;-44
2024/02/02 11:23:10;;;;;;;1.55;0.50;;;;;;;9.29;33.27;97750.59;4975386;28;20542;-42
2024/02/02 11:25:38;;;;;;;1.30;0.52;;;;;;;7.97;35.14;97765.13;5001167;28;20049;-42
2024/02/02 11:28:13;;;;;;;1.45;0.40;;;;;;;6.79;35.48;97760.13;4995326;28;20042;-42
2024/02/02 11:31:09;;;;;;;5.50;0.70;;;;;;;5.58;37.02;97757.31;4992629;28;20042;-42
2024/02/02 11:33:35;;;;;;;1.88;0.50;;;;;;;5.21;37.35;97773.56;4978208;28;20061;-43
2024/02/02 11:36:22;;;;;;;2.30;0.65;;;;;;;5.13;38.62;97767.00;4994728;28;20038;-43
2024/02/02 11:38:54;;;;;;;2.33;0.60;;;;;;;5.05;38.75;97757.94;4987884;28;20041;-42
2024/02/02 11:41:22;;;;;;;2.15;0.52;;;;;;;5.27;38.75;97769.00;5002071;28;20531;-42
2024/02/02 11:43:49;;;;;;;1.70;0.50;;;;;;;5.01;39.65;97761.56;4974083;28;20037;-43
2024/02/02 11:46:17;;;;;;;2.42;0.63;;;;;;;4.59;40.06;97735.88;4990617;28;20136;-43
2024/02/02 11:48:44;;;;;;;1.55;0.35;;;;;;;4.23;41.29;97784.53;5006918;28;20036;-43
2024/02/02 11:51:11;;;;;;;1.48;0.35;;;;;;;3.86;42.48;97740.56;5006025;28;20041;-43
2024/02/02 11:53:52;;;;;;;2.67;0.73;;;;;;;3.96;43.21;97783.00;5006977;28;20041;-42